createdAt,value
2018-11-20T00:00:07.365Z,4.77
2018-11-20T00:03:02.849Z,4.77
2018-11-20T00:05:51.654Z,4.78
2018-11-20T00:08:42.533Z,4.81
2018-11-20T00:11:50.198Z,4.93
2018-11-20T00:14:38.758Z,4.90
2018-11-20T00:17:26.434Z,4.92
2018-11-20T00:20:15.196Z,4.95
2018-11-20T00:23:18.185Z,5.04
2018-11-20T00:26:06.970Z,5.03
2018-11-20T00:29:14.429Z,5.02
2018-11-20T00:32:05.298Z,5.00
2018-11-20T00:35:14.261Z,4.95
2018-11-20T00:38:03.769Z,4.94
2018-11-20T00:40:52.294Z,4.95
2018-11-20T00:43:40.848Z,4.96
2018-11-20T00:46:41.269Z,5.01
2018-11-20T00:52:13.259Z,4.96
2018-11-20T00:55:02.007Z,4.90
2018-11-20T00:57:53.122Z,4.85
2018-11-20T01:06:41.893Z,4.82
2018-11-20T01:09:30.382Z,4.80
2018-11-20T01:12:09.259Z,4.82
2018-11-20T01:14:57.830Z,4.82
2018-11-20T01:17:46.415Z,4.80
2018-11-20T01:23:44.706Z,4.77
2018-11-20T01:26:20.865Z,4.75
2018-11-20T01:29:09.690Z,4.77
2018-11-20T01:31:58.301Z,4.71
2018-11-20T01:34:59.545Z,4.68
2018-11-20T01:37:43.000Z,4.65
2018-11-20T01:40:46.986Z,4.62
2018-11-20T01:43:37.974Z,4.67
2018-11-20T01:46:28.757Z,4.66
2018-11-20T01:49:36.163Z,4.66
2018-11-20T01:52:43.649Z,4.60
2018-11-20T01:55:33.126Z,4.55
2018-11-20T01:58:22.031Z,4.56
2018-11-20T02:01:13.830Z,4.60
2018-11-20T02:04:21.352Z,4.58
2018-11-20T02:07:10.342Z,4.55
2018-11-20T02:09:59.213Z,4.51
2018-11-20T02:12:41.352Z,4.60
2018-11-20T02:15:30.201Z,4.50
2018-11-20T02:18:23.999Z,4.45
2018-11-20T02:21:29.398Z,4.48
2018-11-20T02:27:31.914Z,4.40
2018-11-20T02:30:20.461Z,4.38
2018-11-20T02:33:13.489Z,4.43
2018-11-20T02:36:02.380Z,4.45
2018-11-20T02:39:06.293Z,4.43
2018-11-20T02:42:01.681Z,4.49
2018-11-20T02:45:12.980Z,4.38
2018-11-20T02:50:55.610Z,4.34
2018-11-20T02:53:44.077Z,4.34
2018-11-20T02:59:40.219Z,4.35
2018-11-20T03:02:36.594Z,4.43
2018-11-20T03:05:25.614Z,4.38
2018-11-20T03:08:45.769Z,4.38
2018-11-20T03:11:34.240Z,4.35
2018-11-20T03:14:23.240Z,4.38
2018-11-20T03:17:13.980Z,4.39
2018-11-20T03:20:02.677Z,4.41
2018-11-20T03:22:51.440Z,4.45
2018-11-20T03:25:59.367Z,4.49
2018-11-20T03:28:52.940Z,4.52
2018-11-20T03:31:45.396Z,4.55
2018-11-20T03:34:33.915Z,4.63
2018-11-20T03:37:22.479Z,4.69
2018-11-20T03:40:10.999Z,4.69
2018-11-20T03:43:00.020Z,4.68
2018-11-20T03:45:49.288Z,4.64
2018-11-20T03:48:37.844Z,4.60
2018-11-20T03:51:26.459Z,4.61
2018-11-20T03:54:06.828Z,4.53
2018-11-20T03:56:55.420Z,4.52
2018-11-20T04:00:14.994Z,4.52
2018-11-20T04:03:04.554Z,4.51
2018-11-20T04:05:53.427Z,4.50
2018-11-20T04:08:42.312Z,4.53
2018-11-20T04:11:33.766Z,4.60
2018-11-20T04:14:22.686Z,4.55
2018-11-20T04:17:11.185Z,4.55
2018-11-20T04:19:59.679Z,4.53
2018-11-20T04:22:48.509Z,4.57
2018-11-20T04:25:37.093Z,4.59
2018-11-20T04:28:27.251Z,4.57
2018-11-20T04:31:53.594Z,4.56
2018-11-20T04:34:42.249Z,4.55
2018-11-20T04:37:30.794Z,4.54
2018-11-20T04:40:19.433Z,4.55
2018-11-20T04:43:09.086Z,4.54
2018-11-20T04:45:58.063Z,4.57
2018-11-20T04:48:48.913Z,4.64
2018-11-20T04:51:57.432Z,4.66
2018-11-20T04:55:08.049Z,4.62
2018-11-20T04:57:57.783Z,4.65
2018-11-20T05:00:48.666Z,4.66
2018-11-20T05:03:37.216Z,4.69
2018-11-20T05:06:26.006Z,4.74
2018-11-20T05:09:14.659Z,4.78
2018-11-20T05:12:05.255Z,4.81
2018-11-20T05:18:20.690Z,4.89
2018-11-20T05:21:09.390Z,4.93
2018-11-20T05:23:58.767Z,4.95
2018-11-20T05:26:47.667Z,4.98
2018-11-20T05:29:38.686Z,4.97
2018-11-20T05:32:27.385Z,5.01
2018-11-20T05:35:15.918Z,5.03
2018-11-20T05:38:21.978Z,5.00
2018-11-20T05:41:25.142Z,5.06
2018-11-20T05:44:28.180Z,4.97
2018-11-20T05:47:16.663Z,5.00
2018-11-20T05:50:05.146Z,4.96
2018-11-20T05:52:53.601Z,4.98
2018-11-20T05:55:44.297Z,4.99
2018-11-20T05:58:54.082Z,5.02
2018-11-20T06:01:43.073Z,5.03
2018-11-20T06:04:31.559Z,5.06
2018-11-20T06:07:20.200Z,5.09
2018-11-20T06:10:09.848Z,5.10
2018-11-20T06:12:58.334Z,5.15
2018-11-20T06:15:47.017Z,5.14
2018-11-20T06:18:35.611Z,5.16
2018-11-20T06:21:24.640Z,5.21
2018-11-20T06:24:18.240Z,5.25
2018-11-20T06:27:07.878Z,5.26
2018-11-20T06:29:57.257Z,5.29
2018-11-20T06:32:38.160Z,5.28
2018-11-20T06:35:27.066Z,5.28
2018-11-20T06:38:18.243Z,5.30
2018-11-20T06:41:06.897Z,5.33
2018-11-20T06:43:56.104Z,5.38
2018-11-20T06:46:44.577Z,5.36
2018-11-20T06:49:33.235Z,5.33
2018-11-20T06:52:40.855Z,5.33
2018-11-20T06:55:48.940Z,5.30
2018-11-20T06:58:38.064Z,5.35
2018-11-20T07:01:26.756Z,5.32
2018-11-20T07:04:15.287Z,5.37
2018-11-20T07:07:03.858Z,5.36
2018-11-20T07:10:14.878Z,5.35
2018-11-20T07:13:05.002Z,5.35
2018-11-20T07:16:31.526Z,5.35
2018-11-20T07:19:40.271Z,5.31
2018-11-20T07:22:30.330Z,5.34
2018-11-20T07:25:19.146Z,5.34
2018-11-20T07:28:12.670Z,5.31
2018-11-20T07:31:03.756Z,5.29
2018-11-20T07:33:44.412Z,5.27
2018-11-20T07:36:42.450Z,5.29
2018-11-20T07:39:33.779Z,5.37
2018-11-20T07:42:22.726Z,5.38
2018-11-20T07:45:11.344Z,5.45
2018-11-20T07:47:59.765Z,5.49
2018-11-20T07:50:49.461Z,5.53
2018-11-20T07:53:38.071Z,5.55
2018-11-20T07:56:17.790Z,5.59
2018-11-20T08:05:21.409Z,5.59
2018-11-20T08:07:58.956Z,5.56
2018-11-20T08:11:06.857Z,5.55
2018-11-20T08:13:55.292Z,5.56
2018-11-20T08:19:52.965Z,5.53
2018-11-20T08:22:41.996Z,5.53
2018-11-20T08:25:34.016Z,5.54
2018-11-20T08:28:22.616Z,5.59
2018-11-20T08:31:11.375Z,5.64
2018-11-20T08:34:20.082Z,5.63
2018-11-20T08:37:13.062Z,5.66
2018-11-20T08:40:01.697Z,5.74
2018-11-20T08:46:02.212Z,5.85
2018-11-20T08:48:51.370Z,5.85
2018-11-20T08:51:42.211Z,5.86
2018-11-20T08:54:31.890Z,5.93
2018-11-20T08:57:20.340Z,5.87
2018-11-20T09:00:09.007Z,5.89
2018-11-20T09:02:58.533Z,5.89
2018-11-20T09:06:01.238Z,5.90
2018-11-20T09:08:49.921Z,5.88
2018-11-20T09:11:38.664Z,5.90
2018-11-20T09:14:29.670Z,5.94
2018-11-20T09:17:39.949Z,5.95
2018-11-20T09:20:28.816Z,5.94
2018-11-20T09:23:17.194Z,5.90
2018-11-20T09:26:05.766Z,5.93
2018-11-20T09:28:54.347Z,6.02
2018-11-20T09:31:42.917Z,6.05
2018-11-20T09:34:33.309Z,6.02
2018-11-20T09:37:21.932Z,6.09
2018-11-20T09:40:51.088Z,6.10
2018-11-20T09:43:40.872Z,6.18
2018-11-20T09:46:37.314Z,6.17
2018-11-20T09:49:26.646Z,6.19
2018-11-20T09:52:27.932Z,6.18
2018-11-20T09:55:16.527Z,6.20
2018-11-20T09:57:59.632Z,6.21
2018-11-20T10:00:48.379Z,6.18
2018-11-20T10:03:37.012Z,6.19
2018-11-20T10:06:35.708Z,6.14
2018-11-20T10:09:27.422Z,6.20
2018-11-20T10:12:16.043Z,6.21
2018-11-20T10:15:00.036Z,6.21
2018-11-20T10:17:51.024Z,6.25
2018-11-20T10:20:40.057Z,6.38
2018-11-20T10:23:23.260Z,6.44
2018-11-20T10:26:12.069Z,6.52
2018-11-20T10:29:00.971Z,6.57
2018-11-20T10:31:49.807Z,6.66
2018-11-20T10:34:38.524Z,6.69
2018-11-20T10:37:19.131Z,6.74
2018-11-20T10:40:08.771Z,6.75
2018-11-20T10:42:59.818Z,6.79
2018-11-20T10:45:48.901Z,6.83
2018-11-20T10:48:56.372Z,6.87
2018-11-20T10:51:34.874Z,6.84
2018-11-20T10:54:23.881Z,6.83
2018-11-20T10:57:12.306Z,6.86
2018-11-20T11:03:19.977Z,6.99
2018-11-20T11:06:09.964Z,7.01
2018-11-20T11:09:13.210Z,7.04
2018-11-20T11:12:20.736Z,7.08
2018-11-20T11:15:09.465Z,7.13
2018-11-20T11:18:20.183Z,7.21
2018-11-20T11:21:01.293Z,7.24
2018-11-20T11:23:49.738Z,7.26
2018-11-20T11:26:38.422Z,7.28
2018-11-20T11:29:27.192Z,7.26
2018-11-20T11:32:16.038Z,7.22
2018-11-20T11:35:25.737Z,7.24
2018-11-20T11:38:14.993Z,7.27
2018-11-20T11:41:03.871Z,7.28
2018-11-20T11:43:52.638Z,7.35
2018-11-20T11:46:41.238Z,7.38
2018-11-20T11:49:30.312Z,7.36
2018-11-20T11:52:25.419Z,7.37
2018-11-20T11:55:14.725Z,7.34
2018-11-20T11:58:03.417Z,7.31
2018-11-20T12:01:14.049Z,7.29
2018-11-20T12:06:50.746Z,7.34
2018-11-20T12:09:51.677Z,7.35
2018-11-20T12:12:40.459Z,7.30
2018-11-20T12:18:15.717Z,7.39
2018-11-20T12:21:04.355Z,7.52
2018-11-20T12:23:53.121Z,7.54
2018-11-20T12:26:41.739Z,7.66
2018-11-20T12:29:34.729Z,7.71
2018-11-20T12:32:19.934Z,7.66
2018-11-20T12:35:33.118Z,7.58
2018-11-20T12:38:04.475Z,7.60
2018-11-20T12:40:53.161Z,7.63
2018-11-20T12:43:41.977Z,7.63
2018-11-20T12:46:22.925Z,7.63
2018-11-20T12:49:11.870Z,7.53
2018-11-20T12:52:02.556Z,7.52
2018-11-20T12:54:52.518Z,7.53
2018-11-20T12:58:00.259Z,7.52
2018-11-20T13:00:49.889Z,7.46
2018-11-20T13:03:38.705Z,7.38
2018-11-20T13:06:34.800Z,7.34
2018-11-20T13:09:35.246Z,7.31
2018-11-20T13:12:24.970Z,7.30
2018-11-20T13:15:13.508Z,7.31
2018-11-20T13:18:03.597Z,7.29
2018-11-20T13:21:11.105Z,7.27
2018-11-20T13:23:59.137Z,7.23
2018-11-20T13:26:47.763Z,7.23
2018-11-20T13:29:36.370Z,7.17
2018-11-20T13:32:25.282Z,7.18
2018-11-20T13:35:14.778Z,7.19
2018-11-20T13:38:03.423Z,7.27
2018-11-20T13:41:30.577Z,7.30
2018-11-20T13:44:39.670Z,7.31
2018-11-20T13:47:27.121Z,7.22
2018-11-20T13:50:35.553Z,7.21
2018-11-20T13:53:24.107Z,7.21
2018-11-20T13:56:12.774Z,7.18
2018-11-20T13:59:01.418Z,7.08
2018-11-20T14:01:50.609Z,7.00
2018-11-20T14:04:41.681Z,7.00
2018-11-20T14:10:11.383Z,6.99
2018-11-20T14:13:00.810Z,7.02
2018-11-20T14:15:49.549Z,7.05
2018-11-20T14:18:38.064Z,7.04
2018-11-20T14:21:27.693Z,7.06
2018-11-20T14:24:16.194Z,7.05
2018-11-20T14:27:04.806Z,7.08
2018-11-20T14:29:53.423Z,7.02
2018-11-20T14:32:42.535Z,7.04
2018-11-20T14:38:39.183Z,7.05
2018-11-20T14:41:28.186Z,7.01
2018-11-20T14:44:16.778Z,7.01
2018-11-20T14:47:05.422Z,6.91
2018-11-20T14:49:54.070Z,6.84
2018-11-20T14:52:43.482Z,6.84
2018-11-20T14:55:37.978Z,6.87
2018-11-20T14:58:46.064Z,6.80
2018-11-20T15:01:34.585Z,6.76
2018-11-20T15:04:43.062Z,6.74
2018-11-20T15:07:36.106Z,6.76
2018-11-20T15:10:24.974Z,6.71
2018-11-20T15:13:14.321Z,6.61
2018-11-20T15:16:02.889Z,6.67
2018-11-20T15:18:51.498Z,6.58
2018-11-20T15:21:40.082Z,6.58
2018-11-20T15:24:29.052Z,6.58
2018-11-20T15:27:17.607Z,6.55
2018-11-20T15:30:06.282Z,6.56
2018-11-20T15:32:54.892Z,6.46
2018-11-20T15:35:44.386Z,6.47
2018-11-20T15:38:26.221Z,6.48
2018-11-20T15:41:14.748Z,6.42
2018-11-20T15:44:04.392Z,6.40
2018-11-20T15:46:55.927Z,6.43
2018-11-20T15:49:44.523Z,6.44
2018-11-20T15:52:33.128Z,6.48
2018-11-20T15:55:22.673Z,6.43
2018-11-20T15:58:32.112Z,6.38
2018-11-20T16:01:23.283Z,6.39
2018-11-20T16:04:08.968Z,6.45
2018-11-20T16:07:17.000Z,6.39
2018-11-20T16:10:05.687Z,6.38
2018-11-20T16:12:54.265Z,6.39
2018-11-20T16:15:43.089Z,6.37
2018-11-20T16:18:32.035Z,6.40
2018-11-20T16:21:22.504Z,6.40
2018-11-20T16:24:11.053Z,6.37
2018-11-20T16:26:59.679Z,6.35
2018-11-20T16:29:48.594Z,6.33
2018-11-20T16:32:37.368Z,6.38
2018-11-20T16:35:44.880Z,6.34
2018-11-20T16:38:33.885Z,6.36
2018-11-20T16:41:22.682Z,6.39
2018-11-20T16:44:14.178Z,6.32
2018-11-20T16:47:03.067Z,6.36
2018-11-20T16:49:51.917Z,6.31
2018-11-20T16:53:06.259Z,6.34
2018-11-20T16:56:16.038Z,6.35
2018-11-20T16:59:04.699Z,6.32
2018-11-20T17:01:55.543Z,6.29
2018-11-20T17:04:44.229Z,6.35
2018-11-20T17:07:33.021Z,6.33
2018-11-20T17:10:24.235Z,6.31
2018-11-20T17:13:15.197Z,6.33
2018-11-20T17:16:04.099Z,6.32
2018-11-20T17:18:52.730Z,6.34
2018-11-20T17:21:41.317Z,6.27
2018-11-20T17:24:30.221Z,6.25
2018-11-20T17:27:30.197Z,6.23
2018-11-20T17:30:37.800Z,6.31
2018-11-20T17:33:26.386Z,6.29
2018-11-20T17:36:15.578Z,6.29
2018-11-20T17:39:04.252Z,6.23
2018-11-20T17:41:53.052Z,6.21
2018-11-20T17:44:41.658Z,6.24
2018-11-20T17:47:30.229Z,6.23
2018-11-20T17:50:20.697Z,6.20
2018-11-20T17:53:30.226Z,6.13
2018-11-20T17:56:18.652Z,6.14
2018-11-20T17:59:07.471Z,6.22
2018-11-20T18:01:56.513Z,6.21
2018-11-20T18:04:45.225Z,6.12
2018-11-20T18:07:33.812Z,6.15
2018-11-20T18:10:22.532Z,6.10
2018-11-20T18:13:11.014Z,6.12
2018-11-20T18:15:59.557Z,6.09
2018-11-20T18:18:48.330Z,6.00
2018-11-20T18:21:36.777Z,6.10
2018-11-20T18:24:25.702Z,6.07
2018-11-20T18:27:18.666Z,6.04
2018-11-20T18:32:44.281Z,6.05
2018-11-20T18:35:51.569Z,6.08
2018-11-20T18:38:40.289Z,6.04
2018-11-20T18:44:09.902Z,6.06
2018-11-20T18:46:51.241Z,6.00
2018-11-20T18:49:39.723Z,6.01
2018-11-20T18:52:28.157Z,6.01
2018-11-20T18:55:35.441Z,5.99
2018-11-20T18:58:24.127Z,6.01
2018-11-20T19:01:12.640Z,5.94
2018-11-20T19:04:01.205Z,5.97
2018-11-20T19:06:50.034Z,5.97
2018-11-20T19:09:39.612Z,5.96
2018-11-20T19:12:28.190Z,5.92
2018-11-20T19:15:16.691Z,5.94
2018-11-20T19:18:17.497Z,6.05
2018-11-20T19:20:58.160Z,5.96
2018-11-20T19:23:46.725Z,5.93
2018-11-20T19:26:35.232Z,5.88
2018-11-20T19:29:23.938Z,5.93
2018-11-20T19:32:12.619Z,5.91
2018-11-20T19:34:56.477Z,5.86
2018-11-20T19:38:23.111Z,5.92
2018-11-20T19:41:12.150Z,5.90
2018-11-20T19:44:01.160Z,5.87
2018-11-20T19:46:49.840Z,5.83
2018-11-20T19:49:39.502Z,5.90
2018-11-20T19:52:27.962Z,5.86
2018-11-20T19:55:16.711Z,5.80
2018-11-20T19:58:05.535Z,5.88
2018-11-20T20:00:54.234Z,5.89
2018-11-20T20:03:32.186Z,5.90
2018-11-20T20:06:20.939Z,5.96
2018-11-20T20:11:54.437Z,5.90
2018-11-20T20:15:05.608Z,5.85
2018-11-20T20:17:54.697Z,5.80
2018-11-20T20:20:43.405Z,5.68
2018-11-20T20:23:32.000Z,5.59
2018-11-20T20:26:24.024Z,5.51
2018-11-20T20:29:13.124Z,5.47
2018-11-20T20:31:49.679Z,5.39
2018-11-20T20:34:38.373Z,5.41
2018-11-20T20:37:27.113Z,5.33
2018-11-20T20:40:15.746Z,5.27
2018-11-20T20:43:05.294Z,5.22
2018-11-20T20:45:54.259Z,5.24
2018-11-20T20:49:01.764Z,5.14
2018-11-20T20:51:50.554Z,5.08
2018-11-20T20:54:32.536Z,5.04
2018-11-20T20:57:21.222Z,4.97
2018-11-20T21:00:09.971Z,4.94
2018-11-20T21:03:18.864Z,4.90
2018-11-20T21:06:07.406Z,4.85
2018-11-20T21:08:56.110Z,4.83
2018-11-20T21:11:37.867Z,4.81
2018-11-20T21:14:26.449Z,4.79
2018-11-20T21:17:14.964Z,4.75
2018-11-20T21:20:06.136Z,4.71
2018-11-20T21:22:54.919Z,4.70
2018-11-20T21:25:45.649Z,4.68
2018-11-20T21:28:34.200Z,4.75
2018-11-20T21:31:41.597Z,4.81
2018-11-20T21:34:30.620Z,4.81
2018-11-20T21:37:22.512Z,4.88
2018-11-20T21:40:29.985Z,4.87
2018-11-20T21:43:18.701Z,4.86
2018-11-20T21:49:33.841Z,4.90
2018-11-20T21:52:22.493Z,4.95
2018-11-20T21:55:11.177Z,5.02
2018-11-20T21:57:59.852Z,5.04
2018-11-20T22:00:53.537Z,5.03
2018-11-20T22:03:42.121Z,5.00
2018-11-20T22:06:30.745Z,4.98
2018-11-20T22:09:19.237Z,5.00
2018-11-20T22:12:08.044Z,5.05
2018-11-20T22:14:56.611Z,5.07
2018-11-20T22:17:45.271Z,5.10
2018-11-20T22:20:33.938Z,5.15
2018-11-20T22:23:33.533Z,5.19
2018-11-20T22:26:22.363Z,5.19
2018-11-20T22:29:01.913Z,5.23
2018-11-20T22:32:09.479Z,5.24
2018-11-20T22:34:58.065Z,5.24
2018-11-20T22:40:28.047Z,5.33
2018-11-20T22:43:16.521Z,5.34
2018-11-20T22:46:05.747Z,5.47
2018-11-20T22:48:55.360Z,5.48
2018-11-20T22:51:44.317Z,5.43
2018-11-20T22:54:52.753Z,5.45
2018-11-20T22:57:41.878Z,5.60
2018-11-20T23:00:32.022Z,5.58
2018-11-20T23:03:20.600Z,5.68
2018-11-20T23:06:07.164Z,5.62
2018-11-20T23:08:37.853Z,5.58
2018-11-20T23:11:07.962Z,5.60
2018-11-20T23:13:40.400Z,5.59
2018-11-20T23:16:10.658Z,5.57
2018-11-20T23:18:40.821Z,5.61
2018-11-20T23:21:11.610Z,5.60
2018-11-20T23:23:41.636Z,5.59
2018-11-20T23:26:11.604Z,5.64
2018-11-20T23:28:43.882Z,5.63
2018-11-20T23:31:14.045Z,5.70
2018-11-20T23:34:02.902Z,5.68
2018-11-20T23:36:34.064Z,5.67
2018-11-20T23:39:05.631Z,5.68
2018-11-20T23:41:35.643Z,5.70
2018-11-20T23:44:05.530Z,5.70
2018-11-20T23:46:35.574Z,5.73
2018-11-20T23:49:05.597Z,5.72
2018-11-20T23:51:54.389Z,5.71
2018-11-20T23:54:24.303Z,5.68
2018-11-20T23:56:54.281Z,5.79
2018-11-20T23:59:24.140Z,5.60
